PGT68WZ LTFJ-LTBS
Flight info
| Callsign | PGT68WZ |
|---|---|
| Flight time | 0h 50m |
| Altitude | 32000 |
| Route | ROXUK UT409 NUMTI UT241 DEN/N0424F310 UW87 LAVTA W87 ATSAL |
| Aircraft | A21N/M-SDE2E3FGHIRWXY/LB1 |
Departure
| Time | 2026-04-24 07:37 |
|---|---|
| Airport | Istanbul Sabiha Gökçen International Airport (LTFJ) |
Arrival
| Time | 2026-04-24 08:27 |
|---|---|
| Airport | Dalaman International Airport (LTBS) |
| Time | Latitude | Longitude | Altitude | Speed | Heading |
|---|---|---|---|---|---|
| 2026-04-24 07:20 | 40.90747 | 29.31940 | 321 ft | 0 kts | 334° |
| 2026-04-24 07:29 | 40.90736 | 29.31947 | 319 ft | 3 kts | 333° |
| 2026-04-24 07:29 | 40.90716 | 29.31960 | 321 ft | 3 kts | 332° |
| 2026-04-24 07:30 | 40.90694 | 29.31977 | 319 ft | 3 kts | 342° |
| 2026-04-24 07:30 | 40.90671 | 29.31982 | 319 ft | 3 kts | 21° |
| 2026-04-24 07:30 | 40.90650 | 29.31967 | 321 ft | 3 kts | 46° |
| 2026-04-24 07:30 | 40.90638 | 29.31951 | 319 ft | 0 kts | 62° |
| 2026-04-24 07:33 | 40.90638 | 29.31950 | 319 ft | 0 kts | 62° |
| 2026-04-24 07:33 | 40.90641 | 29.31957 | 318 ft | 3 kts | 65° |
| 2026-04-24 07:33 | 40.90652 | 29.31989 | 319 ft | 6 kts | 64° |
| 2026-04-24 07:34 | 40.90672 | 29.32043 | 320 ft | 6 kts | 63° |
| 2026-04-24 07:34 | 40.90696 | 29.32106 | 321 ft | 9 kts | 63° |
| 2026-04-24 07:34 | 40.90728 | 29.32193 | 321 ft | 12 kts | 66° |
| 2026-04-24 07:34 | 40.90697 | 29.32287 | 321 ft | 13 kts | 147° |
| 2026-04-24 07:35 | 40.90616 | 29.32353 | 320 ft | 15 kts | 131° |
| 2026-04-24 07:35 | 40.90569 | 29.32435 | 321 ft | 10 kts | 149° |
| 2026-04-24 07:35 | 40.90498 | 29.32476 | 321 ft | 12 kts | 158° |
| 2026-04-24 07:35 | 40.90420 | 29.32452 | 318 ft | 14 kts | 228° |
| 2026-04-24 07:36 | 40.90353 | 29.32279 | 318 ft | 46 kts | 246° |
| 2026-04-24 07:36 | 40.90110 | 29.31613 | 321 ft | 112 kts | 244° |
| 2026-04-24 07:36 | 40.89696 | 29.30472 | 333 ft | 161 kts | 244° |
| 2026-04-24 07:36 | 40.89186 | 29.29081 | 822 ft | 171 kts | 243° |
| 2026-04-24 07:37 | 40.88695 | 29.27687 | 1734 ft | 163 kts | 245° |
| 2026-04-24 07:37 | 40.88232 | 29.26325 | 2473 ft | 168 kts | 246° |
| 2026-04-24 07:37 | 40.87716 | 29.24848 | 2989 ft | 187 kts | 246° |
| 2026-04-24 07:37 | 40.87127 | 29.23210 | 3543 ft | 208 kts | 245° |
| 2026-04-24 07:38 | 40.86469 | 29.21426 | 3930 ft | 232 kts | 245° |
| 2026-04-24 07:38 | 40.85732 | 29.19426 | 4502 ft | 247 kts | 245° |
| 2026-04-24 07:38 | 40.84865 | 29.17451 | 5346 ft | 252 kts | 228° |
| 2026-04-24 07:38 | 40.83408 | 29.16134 | 6166 ft | 260 kts | 199° |
| 2026-04-24 07:39 | 40.81601 | 29.15898 | 6941 ft | 266 kts | 169° |
| 2026-04-24 07:39 | 40.79851 | 29.16742 | 7660 ft | 274 kts | 153° |
| 2026-04-24 07:39 | 40.78123 | 29.17941 | 8305 ft | 285 kts | 150° |
| 2026-04-24 07:39 | 40.76366 | 29.19181 | 9164 ft | 288 kts | 151° |
| 2026-04-24 07:40 | 40.74571 | 29.20391 | 9989 ft | 292 kts | 153° |
| 2026-04-24 07:40 | 40.72701 | 29.21600 | 10493 ft | 308 kts | 153° |
| 2026-04-24 07:40 | 40.70723 | 29.22845 | 10729 ft | 330 kts | 154° |
| 2026-04-24 07:40 | 40.68592 | 29.24170 | 11150 ft | 343 kts | 154° |
| 2026-04-24 07:41 | 40.66415 | 29.25518 | 11869 ft | 347 kts | 154° |
| 2026-04-24 07:41 | 40.64217 | 29.26880 | 12621 ft | 351 kts | 154° |
| 2026-04-24 07:41 | 40.61998 | 29.28256 | 13339 ft | 355 kts | 154° |
| 2026-04-24 07:41 | 40.59745 | 29.29654 | 14040 ft | 359 kts | 154° |
| 2026-04-24 07:42 | 40.57475 | 29.31061 | 14665 ft | 363 kts | 154° |
| 2026-04-24 07:42 | 40.55198 | 29.32471 | 15257 ft | 367 kts | 154° |
| 2026-04-24 07:42 | 40.52845 | 29.33927 | 15845 ft | 372 kts | 154° |
| 2026-04-24 07:42 | 40.50523 | 29.35364 | 16420 ft | 376 kts | 154° |
| 2026-04-24 07:43 | 40.48184 | 29.36960 | 16993 ft | 380 kts | 147° |
| 2026-04-24 07:43 | 40.46019 | 29.38987 | 17561 ft | 384 kts | 140° |
| 2026-04-24 07:43 | 40.43929 | 29.41199 | 18141 ft | 388 kts | 140° |
| 2026-04-24 07:43 | 40.41812 | 29.43421 | 18668 ft | 391 kts | 140° |
| 2026-04-24 07:44 | 40.39677 | 29.45652 | 19243 ft | 392 kts | 140° |
| 2026-04-24 07:44 | 40.37536 | 29.47887 | 19798 ft | 394 kts | 140° |
| 2026-04-24 07:44 | 40.35382 | 29.50132 | 20347 ft | 396 kts | 140° |
| 2026-04-24 07:44 | 40.33215 | 29.52389 | 20893 ft | 398 kts | 141° |
| 2026-04-24 07:45 | 40.31038 | 29.54654 | 21419 ft | 401 kts | 141° |
| 2026-04-24 07:45 | 40.28853 | 29.56926 | 21932 ft | 403 kts | 141° |
| 2026-04-24 07:45 | 40.26649 | 29.59216 | 22456 ft | 405 kts | 141° |
| 2026-04-24 07:45 | 40.24429 | 29.61521 | 22949 ft | 407 kts | 141° |
| 2026-04-24 07:46 | 40.22103 | 29.63658 | 23429 ft | 411 kts | 150° |
| 2026-04-24 07:46 | 40.19519 | 29.65203 | 23854 ft | 413 kts | 161° |
| 2026-04-24 07:46 | 40.16714 | 29.66106 | 24260 ft | 416 kts | 171° |
| 2026-04-24 07:46 | 40.13839 | 29.66685 | 24628 ft | 419 kts | 171° |
| 2026-04-24 07:47 | 40.10954 | 29.67279 | 25015 ft | 421 kts | 171° |
| 2026-04-24 07:47 | 40.08051 | 29.67883 | 25399 ft | 423 kts | 171° |
| 2026-04-24 07:47 | 40.05134 | 29.68494 | 25770 ft | 425 kts | 171° |
| 2026-04-24 07:47 | 40.02203 | 29.69107 | 26129 ft | 427 kts | 171° |
| 2026-04-24 07:48 | 39.99257 | 29.69722 | 26477 ft | 430 kts | 171° |
| 2026-04-24 07:48 | 39.96292 | 29.70340 | 26806 ft | 432 kts | 170° |
| 2026-04-24 07:48 | 39.93312 | 29.70955 | 27145 ft | 434 kts | 172° |
| 2026-04-24 07:48 | 39.90285 | 29.71063 | 27448 ft | 437 kts | 186° |
| 2026-04-24 07:49 | 39.87342 | 29.70253 | 27752 ft | 439 kts | 199° |
| 2026-04-24 07:49 | 39.84575 | 29.68563 | 28077 ft | 440 kts | 211° |
| 2026-04-24 07:49 | 39.81955 | 29.66496 | 28451 ft | 440 kts | 212° |
| 2026-04-24 07:49 | 39.79343 | 29.64381 | 28817 ft | 440 kts | 212° |
| 2026-04-24 07:50 | 39.76730 | 29.62283 | 29138 ft | 441 kts | 212° |
| 2026-04-24 07:50 | 39.74110 | 29.60205 | 29433 ft | 442 kts | 212° |
| 2026-04-24 07:50 | 39.71473 | 29.58136 | 29717 ft | 444 kts | 212° |
| 2026-04-24 07:50 | 39.68820 | 29.56068 | 29992 ft | 446 kts | 212° |
| 2026-04-24 07:51 | 39.66157 | 29.54000 | 30273 ft | 446 kts | 212° |
| 2026-04-24 07:51 | 39.63509 | 29.51890 | 30552 ft | 446 kts | 214° |
| 2026-04-24 07:51 | 39.60970 | 29.49661 | 30817 ft | 447 kts | 215° |
| 2026-04-24 07:51 | 39.58392 | 29.47383 | 31106 ft | 447 kts | 215° |
| 2026-04-24 07:52 | 39.55821 | 29.45116 | 31440 ft | 446 kts | 215° |
| 2026-04-24 07:52 | 39.53260 | 29.42863 | 31813 ft | 444 kts | 216° |
| 2026-04-24 07:52 | 39.50711 | 29.40623 | 32017 ft | 442 kts | 216° |
| 2026-04-24 07:52 | 39.48170 | 29.38393 | 32012 ft | 439 kts | 216° |
| 2026-04-24 07:53 | 39.43125 | 29.33969 | 32010 ft | 437 kts | 216° |
| 2026-04-24 07:53 | 39.38083 | 29.29552 | 32003 ft | 436 kts | 216° |
| 2026-04-24 07:54 | 39.33070 | 29.25169 | 32010 ft | 435 kts | 216° |
| 2026-04-24 07:54 | 39.28058 | 29.20796 | 32006 ft | 434 kts | 216° |
| 2026-04-24 07:55 | 39.23100 | 29.16477 | 32001 ft | 432 kts | 216° |
| 2026-04-24 07:55 | 39.18128 | 29.12154 | 31998 ft | 429 kts | 216° |
| 2026-04-24 07:56 | 39.13181 | 29.07861 | 32001 ft | 428 kts | 217° |
| 2026-04-24 07:56 | 39.08251 | 29.03588 | 32003 ft | 426 kts | 217° |
| 2026-04-24 07:57 | 39.03339 | 28.99339 | 31999 ft | 423 kts | 217° |
| 2026-04-24 07:57 | 38.98487 | 28.95148 | 31984 ft | 421 kts | 217° |
| 2026-04-24 07:58 | 38.93630 | 28.90960 | 31986 ft | 420 kts | 217° |
| 2026-04-24 07:58 | 38.88783 | 28.86788 | 31988 ft | 418 kts | 217° |
| 2026-04-24 07:59 | 38.83963 | 28.82646 | 31990 ft | 416 kts | 217° |
| 2026-04-24 07:59 | 38.79186 | 28.78548 | 31993 ft | 414 kts | 218° |
| 2026-04-24 08:00 | 38.74401 | 28.74448 | 31989 ft | 412 kts | 218° |
| 2026-04-24 08:00 | 38.69645 | 28.70382 | 31988 ft | 410 kts | 218° |
| 2026-04-24 08:01 | 38.65707 | 28.67020 | 31984 ft | 408 kts | 218° |
| 2026-04-24 08:01 | 38.60940 | 28.63075 | 31969 ft | 409 kts | 212° |
| 2026-04-24 08:02 | 38.54485 | 28.60834 | 31967 ft | 426 kts | 189° |
| 2026-04-24 08:02 | 38.49476 | 28.61266 | 31966 ft | 432 kts | 182° |
| 2026-04-24 08:03 | 38.43525 | 28.61990 | 31963 ft | 431 kts | 183° |
| 2026-04-24 08:03 | 38.37549 | 28.62696 | 31950 ft | 431 kts | 183° |
| 2026-04-24 08:04 | 38.34557 | 28.63047 | 31725 ft | 432 kts | 183° |
| 2026-04-24 08:04 | 38.31559 | 28.63400 | 31476 ft | 431 kts | 183° |
| 2026-04-24 08:04 | 38.28564 | 28.63753 | 31218 ft | 431 kts | 183° |
| 2026-04-24 08:04 | 38.25567 | 28.64105 | 30969 ft | 431 kts | 183° |
| 2026-04-24 08:05 | 38.22627 | 28.64451 | 30718 ft | 429 kts | 184° |
| 2026-04-24 08:05 | 38.19658 | 28.64801 | 30470 ft | 427 kts | 184° |
| 2026-04-24 08:05 | 38.16711 | 28.65147 | 30220 ft | 425 kts | 184° |
| 2026-04-24 08:05 | 38.13757 | 28.65492 | 29964 ft | 424 kts | 184° |
| 2026-04-24 08:06 | 38.10813 | 28.65836 | 29668 ft | 422 kts | 184° |
| 2026-04-24 08:06 | 38.07901 | 28.66176 | 29376 ft | 419 kts | 184° |
| 2026-04-24 08:06 | 38.05001 | 28.66515 | 29094 ft | 417 kts | 184° |
| 2026-04-24 08:06 | 38.02112 | 28.66850 | 28808 ft | 416 kts | 184° |
| 2026-04-24 08:07 | 37.99240 | 28.67185 | 28525 ft | 414 kts | 184° |
| 2026-04-24 08:07 | 37.96386 | 28.67518 | 28254 ft | 411 kts | 184° |
| 2026-04-24 08:07 | 37.93577 | 28.67844 | 27990 ft | 410 kts | 184° |
| 2026-04-24 08:07 | 37.90734 | 28.68174 | 27706 ft | 410 kts | 184° |
| 2026-04-24 08:08 | 37.87898 | 28.68503 | 27441 ft | 408 kts | 184° |
| 2026-04-24 08:08 | 37.85068 | 28.68832 | 27177 ft | 407 kts | 184° |
| 2026-04-24 08:08 | 37.82253 | 28.69160 | 26908 ft | 405 kts | 184° |
| 2026-04-24 08:09 | 37.76653 | 28.69809 | 26172 ft | 404 kts | 184° |
| 2026-04-24 08:09 | 37.73849 | 28.70134 | 25626 ft | 402 kts | 184° |
| 2026-04-24 08:09 | 37.71077 | 28.70452 | 25071 ft | 397 kts | 184° |
| 2026-04-24 08:09 | 37.68320 | 28.70679 | 24313 ft | 396 kts | 185° |
| 2026-04-24 08:10 | 37.65622 | 28.70849 | 23827 ft | 389 kts | 186° |
| 2026-04-24 08:10 | 37.62947 | 28.71015 | 23578 ft | 381 kts | 186° |
| 2026-04-24 08:10 | 37.60287 | 28.71183 | 23132 ft | 382 kts | 185° |
| 2026-04-24 08:10 | 37.57639 | 28.71358 | 22659 ft | 379 kts | 185° |
| 2026-04-24 08:11 | 37.55021 | 28.71541 | 22180 ft | 373 kts | 185° |
| 2026-04-24 08:11 | 37.52478 | 28.71722 | 21711 ft | 367 kts | 185° |
| 2026-04-24 08:11 | 37.49945 | 28.71903 | 21242 ft | 361 kts | 185° |
| 2026-04-24 08:11 | 37.47454 | 28.72036 | 20905 ft | 359 kts | 187° |
| 2026-04-24 08:12 | 37.44949 | 28.72104 | 20744 ft | 359 kts | 187° |
| 2026-04-24 08:12 | 37.42444 | 28.72161 | 20209 ft | 362 kts | 187° |
| 2026-04-24 08:12 | 37.39895 | 28.72220 | 19360 ft | 370 kts | 187° |
| 2026-04-24 08:12 | 37.37316 | 28.72292 | 18774 ft | 369 kts | 186° |
| 2026-04-24 08:13 | 37.34778 | 28.72376 | 18422 ft | 361 kts | 186° |
| 2026-04-24 08:13 | 37.32272 | 28.72462 | 17901 ft | 358 kts | 186° |
| 2026-04-24 08:13 | 37.29805 | 28.72544 | 17462 ft | 351 kts | 186° |
| 2026-04-24 08:13 | 37.27416 | 28.72621 | 17006 ft | 344 kts | 186° |
| 2026-04-24 08:14 | 37.25040 | 28.72698 | 16560 ft | 339 kts | 186° |
| 2026-04-24 08:14 | 37.22699 | 28.72774 | 16127 ft | 334 kts | 186° |
| 2026-04-24 08:14 | 37.20387 | 28.72848 | 15689 ft | 329 kts | 186° |
| 2026-04-24 08:14 | 37.18108 | 28.72921 | 15252 ft | 325 kts | 186° |
| 2026-04-24 08:15 | 37.15861 | 28.72989 | 14838 ft | 327 kts | 185° |
| 2026-04-24 08:15 | 37.13571 | 28.73063 | 14610 ft | 320 kts | 185° |
| 2026-04-24 08:15 | 37.11416 | 28.73142 | 14498 ft | 307 kts | 186° |
| 2026-04-24 08:15 | 37.09300 | 28.73216 | 14254 ft | 302 kts | 186° |
| 2026-04-24 08:16 | 37.07188 | 28.73276 | 14018 ft | 304 kts | 187° |
| 2026-04-24 08:16 | 37.05101 | 28.73084 | 13779 ft | 297 kts | 195° |
| 2026-04-24 08:16 | 37.03058 | 28.72737 | 13512 ft | 295 kts | 194° |
| 2026-04-24 08:16 | 37.01016 | 28.72398 | 13141 ft | 296 kts | 194° |
| 2026-04-24 08:17 | 36.98978 | 28.72066 | 12785 ft | 294 kts | 194° |
| 2026-04-24 08:17 | 36.96962 | 28.71738 | 12399 ft | 292 kts | 193° |
| 2026-04-24 08:17 | 36.94963 | 28.71412 | 11976 ft | 291 kts | 193° |
| 2026-04-24 08:17 | 36.92961 | 28.71087 | 11702 ft | 290 kts | 193° |
| 2026-04-24 08:18 | 36.90945 | 28.70757 | 11330 ft | 292 kts | 192° |
| 2026-04-24 08:18 | 36.88929 | 28.70431 | 10951 ft | 291 kts | 192° |
| 2026-04-24 08:18 | 36.86928 | 28.70109 | 10557 ft | 289 kts | 191° |
| 2026-04-24 08:18 | 36.84939 | 28.69789 | 10188 ft | 287 kts | 191° |
| 2026-04-24 08:19 | 36.82960 | 28.69466 | 9796 ft | 286 kts | 191° |
| 2026-04-24 08:19 | 36.80996 | 28.69146 | 9385 ft | 283 kts | 190° |
| 2026-04-24 08:19 | 36.79071 | 28.68680 | 8904 ft | 282 kts | 198° |
| 2026-04-24 08:19 | 36.77147 | 28.68043 | 8469 ft | 287 kts | 197° |
| 2026-04-24 08:20 | 36.75227 | 28.67417 | 8202 ft | 286 kts | 197° |
| 2026-04-24 08:20 | 36.73293 | 28.66788 | 7813 ft | 287 kts | 197° |
| 2026-04-24 08:20 | 36.71394 | 28.66175 | 7590 ft | 278 kts | 197° |
| 2026-04-24 08:20 | 36.69539 | 28.65576 | 7120 ft | 279 kts | 197° |
| 2026-04-24 08:21 | 36.67661 | 28.64968 | 6676 ft | 279 kts | 196° |
| 2026-04-24 08:21 | 36.65784 | 28.64360 | 6376 ft | 277 kts | 196° |
| 2026-04-24 08:21 | 36.63941 | 28.63766 | 6228 ft | 268 kts | 196° |
| 2026-04-24 08:21 | 36.62165 | 28.63192 | 5964 ft | 261 kts | 196° |
| 2026-04-24 08:22 | 36.60400 | 28.62615 | 5702 ft | 264 kts | 195° |
| 2026-04-24 08:22 | 36.58603 | 28.62029 | 5641 ft | 270 kts | 195° |
| 2026-04-24 08:22 | 36.56746 | 28.61588 | 5591 ft | 274 kts | 179° |
| 2026-04-24 08:22 | 36.54879 | 28.62125 | 5609 ft | 281 kts | 152° |
| 2026-04-24 08:23 | 36.53390 | 28.63668 | 5587 ft | 289 kts | 127° |
| 2026-04-24 08:23 | 36.52576 | 28.65946 | 5514 ft | 292 kts | 100° |
| 2026-04-24 08:23 | 36.52464 | 28.68468 | 5307 ft | 294 kts | 88° |
| 2026-04-24 08:23 | 36.52775 | 28.71008 | 4760 ft | 304 kts | 69° |
| 2026-04-24 08:24 | 36.53918 | 28.73233 | 4163 ft | 309 kts | 43° |
| 2026-04-24 08:24 | 36.55727 | 28.74647 | 3536 ft | 309 kts | 16° |
| 2026-04-24 08:24 | 36.57856 | 28.75039 | 2847 ft | 311 kts | 4° |
| 2026-04-24 08:24 | 36.60005 | 28.75408 | 2144 ft | 311 kts | 11° |
| 2026-04-24 08:25 | 36.62086 | 28.76051 | 1657 ft | 304 kts | 17° |
| 2026-04-24 08:25 | 36.64063 | 28.76719 | 1624 ft | 275 kts | 10° |
| 2026-04-24 08:25 | 36.65840 | 28.77255 | 1342 ft | 252 kts | 20° |
| 2026-04-24 08:25 | 36.67337 | 28.77943 | 1065 ft | 221 kts | 10° |
| 2026-04-24 08:26 | 36.68781 | 28.78281 | 648 ft | 201 kts | 15° |
| 2026-04-24 08:26 | 36.70000 | 28.78825 | 345 ft | 179 kts | 16° |
| 2026-04-24 08:26 | 36.71152 | 28.79183 | 47 ft | 160 kts | 19° |
| 2026-04-24 08:26 | 36.72038 | 28.79504 | 12 ft | 90 kts | 15° |
| 2026-04-24 08:27 | 36.72424 | 28.79627 | 12 ft | 38 kts | 15° |
| 2026-04-24 08:27 | 36.72589 | 28.79632 | 12 ft | 20 kts | 326° |
| 2026-04-24 08:27 | 36.72650 | 28.79507 | 12 ft | 15 kts | 290° |
| 2026-04-24 08:27 | 36.72685 | 28.79373 | 12 ft | 17 kts | 287° |
| 2026-04-24 08:28 | 36.72659 | 28.79281 | 12 ft | 10 kts | 198° |
| 2026-04-24 08:28 | 36.72586 | 28.79251 | 12 ft | 12 kts | 197° |
| 2026-04-24 08:28 | 36.72494 | 28.79220 | 12 ft | 15 kts | 194° |
| 2026-04-24 08:28 | 36.72387 | 28.79178 | 12 ft | 17 kts | 193° |
| 2026-04-24 08:29 | 36.72316 | 28.79142 | 12 ft | 11 kts | 251° |
| 2026-04-24 08:29 | 36.72316 | 28.79094 | 12 ft | 2 kts | 292° |
| 2026-04-24 08:29 | 36.72320 | 28.79080 | 12 ft | 3 kts | 290° |
| 2026-04-24 08:29 | 36.72325 | 28.79060 | 12 ft | 0 kts | 288° |